Wetterdaten: Woche 22.07.13 - 28.07.13 (KW30)
Datum Zeit Temp. Aussen +5cm Feuchte Auss Luftdruck Regen Sonnenschein Regendauer UV Solar Windben
22.07.2013 00:00 21,0 C 18,2 C 78 % 1017,4 hPa 0,0 l/m 0,00 h 0,00 h 0,0 UV-I 0 W/m 0,0 km/h (0 Bft)
22.07.2013 01:00 19,8 C 17,4 C 82 % 1017,5 hPa 0,0 l/m 0,00 h 0,00 h 0,0 UV-I 0 W/m 0,0 km/h (0 Bft)
22.07.2013 02:00 19,0 C 17,0 C 87 % 1017,2 hPa 0,0 l/m 0,00 h 0,00 h 0,0 UV-I 0 W/m 0,0 km/h (0 Bft)
22.07.2013 03:00 18,2 C 16,3 C 87 % 1016,7 hPa 0,0 l/m 0,00 h 0,00 h 0,0 UV-I 0 W/m 0,0 km/h (0 Bft)
22.07.2013 04:00 17,7 C 15,8 C 87 % 1016,6 hPa 0,0 l/m 0,00 h 0,00 h 0,0 UV-I 0 W/m 0,0 km/h (0 Bft)
22.07.2013 05:00 17,4 C 16,0 C 88 % 1016,5 hPa 0,0 l/m 0,00 h 0,00 h 0,0 UV-I 7 W/m 0,5 km/h (0 Bft)
22.07.2013 06:00 18,3 C 17,3 C 84 % 1016,7 hPa 0,0 l/m 0,00 h 0,00 h 0,0 UV-I 25 W/m 4,4 km/h (1 Bft)
22.07.2013 07:00 19,3 C 18,3 C 82 % 1016,6 hPa 0,0 l/m 0,00 h 0,00 h 0,0 UV-I 48 W/m 1,7 km/h (1 Bft)
22.07.2013 08:00 21,1 C 20,5 C 78 % 1016,5 hPa 0,0 l/m 0,87 h 0,00 h 0,6 UV-I 287 W/m 8,1 km/h (2 Bft)
22.07.2013 09:00 25,0 C 23,7 C 67 % 1016,5 hPa 0,0 l/m 0,97 h 0,00 h 1,2 UV-I 449 W/m 9,6 km/h (2 Bft)
22.07.2013 10:00 28,5 C 32,6 C 57 % 1016,6 hPa 0,0 l/m 0,97 h 0,00 h 2,3 UV-I 580 W/m 8,1 km/h (2 Bft)
22.07.2013 11:00 31,4 C 35,0 C 49 % 1016,4 hPa 0,0 l/m 0,97 h 0,00 h 3,5 UV-I 689 W/m 4,4 km/h (1 Bft)
22.07.2013 12:00 33,7 C 37,1 C 43 % 1016,0 hPa 0,0 l/m 0,97 h 0,00 h 4,2 UV-I 750 W/m 6,8 km/h (2 Bft)
22.07.2013 13:00 34,9 C 34,7 C 41 % 1015,6 hPa 0,0 l/m 0,97 h 0,00 h 3,0 UV-I 780 W/m 7,7 km/h (2 Bft)
22.07.2013 14:00 34,9 C 34,2 C 42 % 1015,2 hPa 0,0 l/m 0,77 h 0,00 h 3,9 UV-I 682 W/m 4,4 km/h (1 Bft)
22.07.2013 15:00 34,8 C 33,2 C 41 % 1014,8 hPa 0,0 l/m 0,50 h 0,00 h 3,1 UV-I 480 W/m 4,7 km/h (1 Bft)
22.07.2013 16:00 34,9 C 33,9 C 41 % 1014,4 hPa 0,0 l/m 0,70 h 0,00 h 2,7 UV-I 536 W/m 2,9 km/h (1 Bft)
22.07.2013 17:00 34,1 C 32,2 C 42 % 1014,0 hPa 0,0 l/m 0,70 h 0,00 h 1,8 UV-I 445 W/m 3,8 km/h (1 Bft)
22.07.2013 18:00 33,1 C 30,8 C 44 % 1013,5 hPa 0,0 l/m 0,20 h 0,00 h 0,9 UV-I 167 W/m 2,3 km/h (1 Bft)
22.07.2013 19:00 32,1 C 29,9 C 48 % 1013,5 hPa 0,0 l/m 0,00 h 0,00 h 0,5 UV-I 83 W/m 0,6 km/h (0 Bft)
22.07.2013 20:00 30,9 C 27,4 C 57 % 1013,5 hPa 0,0 l/m 0,00 h 0,00 h 0,0 UV-I 40 W/m 1,5 km/h (1 Bft)
22.07.2013 21:00 28,4 C 25,7 C 58 % 1014,1 hPa 0,0 l/m 0,23 h 0,03 h 0,0 UV-I 20 W/m 1,2 km/h (1 Bft)
22.07.2013 22:00 26,3 C 22,9 C 62 % 1014,0 hPa 0,0 l/m 0,00 h 0,00 h 0,0 UV-I 0 W/m 0,0 km/h (0 Bft)
22.07.2013 23:00 24,6 C 21,6 C 68 % 1014,1 hPa 0,0 l/m 0,00 h 0,00 h 0,0 UV-I 0 W/m 0,2 km/h (0 Bft)
23.07.2013 00:00 23,2 C 20,8 C 71 % 1013,9 hPa 0,0 l/m 0,00 h 0,00 h 0,0 UV-I 0 W/m 0,0 km/h (0 Bft)
23.07.2013 01:00 22,4 C 20,5 C 74 % 1013,7 hPa 0,0 l/m 0,00 h 0,00 h 0,0 UV-I 0 W/m 0,0 km/h (0 Bft)
23.07.2013 02:00 21,7 C 19,2 C 77 % 1013,4 hPa 0,0 l/m 0,00 h 0,00 h 0,0 UV-I 0 W/m 0,0 km/h (0 Bft)
23.07.2013 03:00 20,9 C 18,8 C 80 % 1013,2 hPa 0,0 l/m 0,00 h 0,00 h 0,0 UV-I 0 W/m 0,5 km/h (0 Bft)
23.07.2013 04:00 20,4 C 18,3 C 82 % 1012,8 hPa 0,0 l/m 0,00 h 0,00 h 0,0 UV-I 0 W/m 0,0 km/h (0 Bft)
23.07.2013 05:00 19,8 C 17,7 C 84 % 1012,6 hPa 0,0 l/m 0,00 h 0,00 h 0,0 UV-I 6 W/m 0,0 km/h (0 Bft)
23.07.2013 06:00 19,4 C 17,9 C 88 % 1012,6 hPa 0,0 l/m 0,00 h 0,00 h 0,0 UV-I 28 W/m 0,0 km/h (0 Bft)
23.07.2013 07:00 19,7 C 19,3 C 90 % 1012,7 hPa 0,0 l/m 0,00 h 0,00 h 0,0 UV-I 71 W/m 0,0 km/h (0 Bft)
23.07.2013 08:00 21,4 C 21,6 C 87 % 1012,9 hPa 0,0 l/m 0,83 h 0,00 h 0,6 UV-I 252 W/m 1,0 km/h (0 Bft)
23.07.2013 09:00 24,8 C 24,6 C 78 % 1013,0 hPa 0,0 l/m 0,83 h 0,00 h 1,0 UV-I 379 W/m 1,2 km/h (1 Bft)
23.07.2013 10:00 26,5 C 25,8 C 73 % 1013,0 hPa 0,0 l/m 0,07 h 0,00 h 0,8 UV-I 182 W/m 5,5 km/h (1 Bft)
23.07.2013 11:00 27,1 C 27,8 C 71 % 1013,1 hPa 0,0 l/m 0,10 h 0,00 h 1,5 UV-I 311 W/m 2,2 km/h (1 Bft)
23.07.2013 12:00 29,5 C 33,5 C 62 % 1012,6 hPa 0,0 l/m 0,77 h 0,00 h 3,4 UV-I 711 W/m 2,3 km/h (1 Bft)
23.07.2013 13:00 31,7 C 33,6 C 55 % 1012,1 hPa 0,0 l/m 0,97 h 0,00 h 3,2 UV-I 780 W/m 6,7 km/h (2 Bft)
23.07.2013 14:00 32,1 C 33,5 C 52 % 1011,7 hPa 0,0 l/m 0,83 h 0,00 h 3,5 UV-I 653 W/m 5,7 km/h (1 Bft)
23.07.2013 15:00 32,2 C 32,7 C 50 % 1011,2 hPa 0,0 l/m 0,70 h 0,00 h 2,7 UV-I 533 W/m 4,5 km/h (1 Bft)
23.07.2013 16:00 32,3 C 33,1 C 49 % 1011,1 hPa 0,0 l/m 0,48 h 0,00 h 2,0 UV-I 390 W/m 1,6 km/h (1 Bft)
23.07.2013 17:00 29,5 C 29,3 C 58 % 1011,1 hPa 0,0 l/m 0,00 h 0,00 h 0,6 UV-I 136 W/m 3,0 km/h (1 Bft)
23.07.2013 18:00 27,9 C 27,3 C 55 % 1012,1 hPa 0,0 l/m 0,03 h 0,00 h 0,6 UV-I 144 W/m 16,2 km/h (3 Bft)
23.07.2013 19:00 26,4 C 25,4 C 58 % 1011,9 hPa 0,0 l/m 0,00 h 0,00 h 0,0 UV-I 57 W/m 7,2 km/h (2 Bft)
23.07.2013 20:00 25,2 C 23,8 C 62 % 1011,5 hPa 0,0 l/m 0,00 h 0,00 h 0,0 UV-I 9 W/m 0,2 km/h (0 Bft)
23.07.2013 21:00 24,3 C 22,8 C 66 % 1012,2 hPa 0,0 l/m 0,00 h 0,17 h 0,0 UV-I 0 W/m 1,7 km/h (1 Bft)
23.07.2013 22:00 23,4 C 22,0 C 71 % 1012,1 hPa 0,0 l/m 0,00 h 0,00 h 0,0 UV-I 0 W/m 0,0 km/h (0 Bft)
23.07.2013 23:00 22,8 C 21,6 C 75 % 1012,1 hPa 0,0 l/m 0,00 h 0,00 h 0,0 UV-I 0 W/m 3,2 km/h (1 Bft)
24.07.2013 00:00 22,4 C 21,0 C 77 % 1012,0 hPa 0,0 l/m 0,00 h 0,00 h 0,0 UV-I 0 W/m 0,3 km/h (0 Bft)
24.07.2013 01:00 21,0 C 19,3 C 83 % 1012,0 hPa 0,0 l/m 0,00 h 0,00 h 0,0 UV-I 0 W/m 0,0 km/h (0 Bft)
24.07.2013 02:00 19,8 C 18,2 C 87 % 1012,2 hPa 0,0 l/m 0,00 h 0,00 h 0,0 UV-I 0 W/m 0,0 km/h (0 Bft)
24.07.2013 03:00 19,1 C 17,7 C 90 % 1012,1 hPa 0,0 l/m 0,00 h 0,00 h 0,0 UV-I 0 W/m 0,0 km/h (0 Bft)
24.07.2013 04:00 18,7 C 17,4 C 91 % 1012,4 hPa 0,0 l/m 0,00 h 0,00 h 0,0 UV-I 0 W/m 0,0 km/h (0 Bft)
24.07.2013 05:00 18,7 C 17,5 C 92 % 1012,6 hPa 0,0 l/m 0,00 h 0,00 h 0,0 UV-I 5 W/m 0,0 km/h (0 Bft)
24.07.2013 06:00 19,1 C 18,2 C 92 % 1012,6 hPa 0,0 l/m 0,00 h 0,00 h 0,0 UV-I 30 W/m 0,3 km/h (0 Bft)
24.07.2013 07:00 20,2 C 19,7 C 91 % 1013,0 hPa 0,0 l/m 0,00 h 0,00 h 0,0 UV-I 95 W/m 2,6 km/h (1 Bft)
24.07.2013 08:00 21,5 C 21,5 C 86 % 1013,6 hPa 0,0 l/m 0,30 h 0,00 h 0,0 UV-I 207 W/m 4,7 km/h (1 Bft)
24.07.2013 09:00 22,6 C 23,0 C 79 % 1013,9 hPa 0,0 l/m 0,73 h 0,00 h 0,9 UV-I 351 W/m 5,9 km/h (2 Bft)
24.07.2013 10:00 24,0 C 25,2 C 70 % 1014,0 hPa 0,0 l/m 0,13 h 0,00 h 0,9 UV-I 291 W/m 5,5 km/h (1 Bft)
24.07.2013 11:00 23,3 C 23,4 C 75 % 1014,6 hPa 0,0 l/m 0,00 h 0,10 h 0,5 UV-I 150 W/m 6,5 km/h (2 Bft)
24.07.2013 12:00 23,1 C 23,6 C 80 % 1014,8 hPa 0,0 l/m 0,00 h 0,23 h 0,9 UV-I 225 W/m 4,5 km/h (1 Bft)
24.07.2013 13:00 23,5 C 24,5 C 79 % 1014,8 hPa 0,0 l/m 0,07 h 0,00 h 1,4 UV-I 315 W/m 6,7 km/h (2 Bft)
24.07.2013 14:00 24,7 C 26,3 C 75 % 1014,6 hPa 0,0 l/m 0,42 h 0,00 h 2,3 UV-I 438 W/m 5,7 km/h (1 Bft)
24.07.2013 15:00 27,3 C 29,1 C 68 % 1014,3 hPa 0,0 l/m 0,73 h 0,00 h 3,2 UV-I 674 W/m 7,8 km/h (2 Bft)
24.07.2013 16:00 27,4 C 28,5 C 67 % 1014,1 hPa 0,0 l/m 0,30 h 0,00 h 1,6 UV-I 374 W/m 8,4 km/h (2 Bft)
24.07.2013 17:00 27,3 C 27,6 C 64 % 1013,9 hPa 0,0 l/m 0,47 h 0,00 h 1,1 UV-I 316 W/m 10,4 km/h (2 Bft)
24.07.2013 18:00 27,5 C 27,0 C 64 % 1013,7 hPa 0,0 l/m 0,20 h 0,00 h 0,6 UV-I 211 W/m 6,1 km/h (2 Bft)
24.07.2013 19:00 26,4 C 25,3 C 63 % 1013,9 hPa 0,0 l/m 0,00 h 0,00 h 0,0 UV-I 82 W/m 5,8 km/h (2 Bft)
24.07.2013 20:00 25,3 C 24,2 C 68 % 1014,4 hPa 0,0 l/m 0,00 h 0,00 h 0,0 UV-I 42 W/m 2,6 km/h (1 Bft)
24.07.2013 21:00 24,0 C 22,5 C 73 % 1015,0 hPa 0,0 l/m 0,00 h 0,00 h 0,0 UV-I 12 W/m 0,0 km/h (0 Bft)
24.07.2013 22:00 22,0 C 20,6 C 80 % 1015,2 hPa 0,0 l/m 0,00 h 0,00 h 0,0 UV-I 0 W/m 4,3 km/h (1 Bft)
24.07.2013 23:00 20,8 C 19,3 C 85 % 1015,5 hPa 0,0 l/m 0,00 h 0,00 h 0,0 UV-I 0 W/m 0,2 km/h (0 Bft)
25.07.2013 00:00 19,8 C 18,4 C 87 % 1015,6 hPa 0,0 l/m 0,00 h 0,00 h 0,0 UV-I 0 W/m 0,0 km/h (0 Bft)
25.07.2013 01:00 18,7 C 17,2 C 91 % 1015,5 hPa 0,0 l/m 0,00 h 0,00 h 0,0 UV-I 0 W/m 0,0 km/h (0 Bft)
25.07.2013 02:00 18,0 C 16,5 C 93 % 1015,3 hPa 0,0 l/m 0,00 h 0,00 h 0,0 UV-I 0 W/m 0,0 km/h (0 Bft)
25.07.2013 03:00 17,5 C 15,9 C 95 % 1015,1 hPa 0,0 l/m 0,00 h 0,00 h 0,0 UV-I 0 W/m 0,0 km/h (0 Bft)
25.07.2013 04:00 17,1 C 15,7 C 96 % 1015,1 hPa 0,0 l/m 0,00 h 0,00 h 0,0 UV-I 0 W/m 0,0 km/h (0 Bft)
25.07.2013 05:00 17,0 C 15,9 C 98 % 1015,1 hPa 0,0 l/m 0,00 h 0,00 h 0,0 UV-I 5 W/m 1,0 km/h (0 Bft)
25.07.2013 06:00 17,2 C 16,4 C 99 % 1015,1 hPa 0,0 l/m 0,00 h 0,00 h 0,0 UV-I 24 W/m 4,1 km/h (1 Bft)
25.07.2013 07:00 17,4 C 17,0 C 99 % 1015,2 hPa 0,0 l/m 0,00 h 0,00 h 0,0 UV-I 77 W/m 5,5 km/h (1 Bft)
25.07.2013 08:00 19,2 C 18,6 C 97 % 1015,1 hPa 0,0 l/m 0,80 h 0,00 h 0,5 UV-I 246 W/m 6,3 km/h (2 Bft)
25.07.2013 09:00 22,4 C 21,7 C 86 % 1014,9 hPa 0,0 l/m 0,97 h 0,00 h 1,0 UV-I 409 W/m 9,1 km/h (2 Bft)
25.07.2013 10:00 25,5 C 29,6 C 74 % 1014,7 hPa 0,0 l/m 0,93 h 0,00 h 2,0 UV-I 522 W/m 11,0 km/h (2 Bft)
25.07.2013 11:00 27,2 C 29,9 C 67 % 1014,6 hPa 0,0 l/m 0,60 h 0,00 h 2,5 UV-I 536 W/m 12,1 km/h (2 Bft)
25.07.2013 12:00 26,1 C 26,0 C 71 % 1014,4 hPa 0,0 l/m 0,00 h 0,10 h 0,9 UV-I 148 W/m 2,6 km/h (1 Bft)
25.07.2013 13:00 23,6 C 21,6 C 86 % 1014,8 hPa 1,4 l/m 0,00 h 0,97 h 0,7 UV-I 107 W/m 2,5 km/h (1 Bft)
25.07.2013 14:00 22,8 C 22,2 C 94 % 1014,5 hPa 0,4 l/m 0,33 h 0,40 h 2,7 UV-I 474 W/m 8,0 km/h (2 Bft)
25.07.2013 15:00 25,6 C 24,1 C 77 % 1014,2 hPa 0,0 l/m 0,97 h 0,00 h 4,0 UV-I 734 W/m 13,6 km/h (3 Bft)
25.07.2013 16:00 27,6 C 26,8 C 68 % 1014,1 hPa 0,0 l/m 0,93 h 0,00 h 3,0 UV-I 627 W/m 12,6 km/h (3 Bft)
25.07.2013 17:00 27,7 C 26,4 C 67 % 1014,1 hPa 0,0 l/m 0,80 h 0,00 h 1,6 UV-I 432 W/m 11,8 km/h (2 Bft)
25.07.2013 18:00 27,1 C 25,5 C 69 % 1013,8 hPa 0,0 l/m 0,37 h 0,00 h 0,8 UV-I 224 W/m 8,6 km/h (2 Bft)
25.07.2013 19:00 26,1 C 24,8 C 73 % 1013,7 hPa 0,0 l/m 0,00 h 0,00 h 0,0 UV-I 80 W/m 7,7 km/h (2 Bft)
25.07.2013 20:00 25,3 C 23,8 C 77 % 1013,9 hPa 0,0 l/m 0,00 h 0,00 h 0,0 UV-I 44 W/m 4,8 km/h (1 Bft)
25.07.2013 21:00 24,0 C 22,2 C 83 % 1014,0 hPa 0,0 l/m 0,00 h 0,00 h 0,0 UV-I 9 W/m 0,5 km/h (0 Bft)
25.07.2013 22:00 22,8 C 21,1 C 89 % 1014,4 hPa 0,0 l/m 0,00 h 0,00 h 0,0 UV-I 0 W/m 1,0 km/h (0 Bft)
25.07.2013 23:00 21,9 C 20,0 C 92 % 1014,5 hPa 0,0 l/m 0,00 h 0,00 h 0,0 UV-I 0 W/m 0,0 km/h (0 Bft)
26.07.2013 00:00 20,9 C 19,3 C 95 % 1014,8 hPa 0,0 l/m 0,00 h 0,00 h 0,0 UV-I 0 W/m 0,9 km/h (0 Bft)
26.07.2013 01:00 20,5 C 19,0 C 96 % 1014,8 hPa 0,0 l/m 0,00 h 0,00 h 0,0 UV-I 0 W/m 0,0 km/h (0 Bft)
26.07.2013 02:00 20,3 C 18,7 C 97 % 1014,6 hPa 0,0 l/m 0,00 h 0,00 h 0,0 UV-I 0 W/m 0,4 km/h (0 Bft)
26.07.2013 03:00 20,2 C 18,8 C 98 % 1014,1 hPa 0,0 l/m 0,00 h 0,00 h 0,0 UV-I 0 W/m 0,7 km/h (0 Bft)
26.07.2013 04:00 19,9 C 18,4 C 98 % 1013,7 hPa 0,0 l/m 0,00 h 0,00 h 0,0 UV-I 0 W/m 0,2 km/h (0 Bft)
26.07.2013 05:00 19,8 C 18,4 C 98 % 1013,9 hPa 0,0 l/m 0,00 h 0,00 h 0,0 UV-I 5 W/m 1,9 km/h (1 Bft)
26.07.2013 06:00 19,9 C 19,0 C 97 % 1013,7 hPa 0,0 l/m 0,00 h 0,00 h 0,0 UV-I 14 W/m 4,4 km/h (1 Bft)
26.07.2013 07:00 20,4 C 19,7 C 96 % 1013,3 hPa 0,0 l/m 0,00 h 0,00 h 0,0 UV-I 75 W/m 6,7 km/h (2 Bft)
26.07.2013 08:00 21,2 C 20,8 C 93 % 1013,2 hPa 0,0 l/m 0,00 h 0,00 h 0,0 UV-I 104 W/m 8,9 km/h (2 Bft)
26.07.2013 09:00 21,8 C 21,4 C 91 % 1013,4 hPa 0,0 l/m 0,00 h 0,00 h 0,6 UV-I 112 W/m 9,5 km/h (2 Bft)
26.07.2013 10:00 23,0 C 22,6 C 88 % 1013,3 hPa 0,0 l/m 0,00 h 0,00 h 0,6 UV-I 144 W/m 12,1 km/h (2 Bft)
26.07.2013 11:00 23,1 C 22,4 C 87 % 1013,7 hPa 0,0 l/m 0,00 h 0,27 h 0,5 UV-I 118 W/m 8,6 km/h (2 Bft)
26.07.2013 12:00 24,7 C 25,5 C 81 % 1013,6 hPa 0,0 l/m 0,47 h 0,07 h 2,4 UV-I 415 W/m 3,4 km/h (1 Bft)
26.07.2013 13:00 26,1 C 26,9 C 75 % 1013,0 hPa 0,0 l/m 0,07 h 0,00 h 2,1 UV-I 347 W/m 5,4 km/h (1 Bft)
26.07.2013 14:00 26,5 C 26,9 C 73 % 1012,4 hPa 0,0 l/m 0,00 h 0,13 h 1,6 UV-I 275 W/m 4,4 km/h (1 Bft)
26.07.2013 15:00 25,1 C 24,6 C 77 % 1012,9 hPa 0,0 l/m 0,00 h 0,07 h 0,5 UV-I 107 W/m 6,2 km/h (2 Bft)
26.07.2013 16:00 26,2 C 26,3 C 73 % 1012,5 hPa 0,0 l/m 0,57 h 0,00 h 2,2 UV-I 475 W/m 9,9 km/h (2 Bft)
26.07.2013 17:00 27,4 C 26,2 C 67 % 1012,1 hPa 0,0 l/m 0,93 h 0,00 h 1,9 UV-I 500 W/m 6,3 km/h (2 Bft)
26.07.2013 18:00 27,3 C 25,6 C 67 % 1011,8 hPa 0,0 l/m 0,43 h 0,00 h 1,0 UV-I 209 W/m 3,0 km/h (1 Bft)
26.07.2013 19:00 27,1 C 25,0 C 67 % 1011,8 hPa 0,0 l/m 0,00 h 0,00 h 0,0 UV-I 40 W/m 0,6 km/h (0 Bft)
26.07.2013 20:00 25,9 C 23,5 C 72 % 1011,7 hPa 0,0 l/m 0,00 h 0,00 h 0,0 UV-I 18 W/m 0,0 km/h (0 Bft)
26.07.2013 21:00 23,7 C 21,5 C 82 % 1011,9 hPa 0,0 l/m 0,00 h 0,00 h 0,0 UV-I 6 W/m 0,0 km/h (0 Bft)
26.07.2013 22:00 22,2 C 20,2 C 89 % 1011,9 hPa 0,0 l/m 0,00 h 0,00 h 0,0 UV-I 0 W/m 0,0 km/h (0 Bft)
26.07.2013 23:00 21,3 C 19,4 C 92 % 1011,6 hPa 0,0 l/m 0,00 h 0,00 h 0,0 UV-I 0 W/m 0,0 km/h (0 Bft)
27.07.2013 00:00 20,7 C 18,7 C 93 % 1011,5 hPa 0,0 l/m 0,00 h 0,00 h 0,0 UV-I 0 W/m 0,0 km/h (0 Bft)
27.07.2013 01:00 20,0 C 18,4 C 95 % 1011,4 hPa 0,0 l/m 0,00 h 0,00 h 0,0 UV-I 0 W/m 0,0 km/h (0 Bft)
27.07.2013 02:00 20,1 C 18,4 C 95 % 1011,1 hPa 0,0 l/m 0,00 h 0,00 h 0,0 UV-I 0 W/m 0,0 km/h (0 Bft)
27.07.2013 03:00 19,8 C 18,4 C 95 % 1010,9 hPa 0,0 l/m 0,00 h 0,00 h 0,0 UV-I 0 W/m 0,0 km/h (0 Bft)
27.07.2013 04:00 19,7 C 18,0 C 95 % 1010,2 hPa 0,0 l/m 0,00 h 0,00 h 0,0 UV-I 0 W/m 0,0 km/h (0 Bft)
27.07.2013 05:00 19,0 C 17,3 C 97 % 1010,0 hPa 0,0 l/m 0,00 h 0,00 h 0,0 UV-I 5 W/m 0,0 km/h (0 Bft)
27.07.2013 06:00 19,4 C 17,8 C 98 % 1010,1 hPa 0,0 l/m 0,00 h 0,00 h 0,0 UV-I 20 W/m 0,2 km/h (0 Bft)
27.07.2013 07:00 20,8 C 19,5 C 98 % 1009,4 hPa 0,0 l/m 0,00 h 0,00 h 0,0 UV-I 60 W/m 3,5 km/h (1 Bft)
27.07.2013 08:00 22,9 C 21,9 C 94 % 1009,1 hPa 0,0 l/m 0,70 h 0,00 h 0,6 UV-I 235 W/m 9,7 km/h (2 Bft)
27.07.2013 09:00 25,4 C 24,7 C 84 % 1008,6 hPa 0,0 l/m 0,80 h 0,00 h 1,1 UV-I 350 W/m 7,1 km/h (2 Bft)
27.07.2013 10:00 26,5 C 26,2 C 80 % 1008,5 hPa 0,0 l/m 0,03 h 0,00 h 0,8 UV-I 217 W/m 5,0 km/h (1 Bft)
27.07.2013 11:00 25,5 C 24,1 C 81 % 1008,5 hPa 0,0 l/m 0,00 h 0,43 h 0,6 UV-I 124 W/m 5,4 km/h (1 Bft)
27.07.2013 12:00 20,0 C 18,4 C 94 % 1009,9 hPa 11,0 l/m 0,00 h 0,57 h 0,7 UV-I 42 W/m 8,1 km/h (2 Bft)
27.07.2013 13:00 21,7 C 21,3 C 97 % 1006,6 hPa 0,0 l/m 0,80 h 0,00 h 2,6 UV-I 604 W/m 9,5 km/h (2 Bft)
27.07.2013 14:00 24,4 C 24,0 C 86 % 1007,1 hPa 0,0 l/m 0,83 h 0,00 h 3,6 UV-I 600 W/m 7,5 km/h (2 Bft)
27.07.2013 15:00 25,7 C 25,2 C 81 % 1007,1 hPa 0,0 l/m 0,60 h 0,00 h 2,9 UV-I 490 W/m 1,9 km/h (1 Bft)
27.07.2013 16:00 27,9 C 26,9 C 75 % 1007,0 hPa 0,0 l/m 0,97 h 0,00 h 3,1 UV-I 617 W/m 3,4 km/h (1 Bft)
27.07.2013 17:00 28,2 C 26,8 C 73 % 1006,5 hPa 0,0 l/m 0,73 h 0,00 h 1,7 UV-I 405 W/m 6,5 km/h (2 Bft)
27.07.2013 18:00 27,9 C 26,2 C 74 % 1006,1 hPa 0,0 l/m 0,37 h 0,00 h 0,8 UV-I 219 W/m 1,9 km/h (1 Bft)
27.07.2013 19:00 28,0 C 26,3 C 74 % 1005,5 hPa 0,0 l/m 0,00 h 0,00 h 0,0 UV-I 89 W/m 2,2 km/h (1 Bft)
27.07.2013 20:00 26,9 C 25,0 C 78 % 1005,2 hPa 0,0 l/m 0,07 h 0,00 h 0,0 UV-I 43 W/m 1,3 km/h (1 Bft)
27.07.2013 21:00 25,4 C 23,3 C 84 % 1005,1 hPa 0,0 l/m 0,00 h 0,00 h 0,0 UV-I 10 W/m 0,4 km/h (0 Bft)
27.07.2013 22:00 23,9 C 22,2 C 88 % 1004,7 hPa 0,0 l/m 0,00 h 0,00 h 0,0 UV-I 0 W/m 0,4 km/h (0 Bft)
27.07.2013 23:00 23,3 C 21,8 C 91 % 1004,1 hPa 0,0 l/m 0,00 h 0,00 h 0,0 UV-I 0 W/m 0,3 km/h (0 Bft)
28.07.2013 00:00 23,2 C 21,8 C 93 % 1004,4 hPa 0,0 l/m 0,00 h 0,00 h 0,0 UV-I 0 W/m 4,2 km/h (1 Bft)
28.07.2013 01:00 24,5 C 22,8 C 80 % 1005,8 hPa 0,0 l/m 0,00 h 0,00 h 0,0 UV-I 0 W/m 13,0 km/h (3 Bft)
28.07.2013 02:00 23,3 C 21,6 C 80 % 1005,7 hPa 0,0 l/m 0,00 h 0,00 h 0,0 UV-I 0 W/m 10,2 km/h (2 Bft)
28.07.2013 03:00 21,2 C 19,9 C 91 % 1006,3 hPa 0,0 l/m 0,00 h 0,00 h 0,0 UV-I 0 W/m 1,5 km/h (1 Bft)
28.07.2013 04:00 19,8 C 18,5 C 93 % 1006,7 hPa 0,0 l/m 0,00 h 0,00 h 0,0 UV-I 0 W/m 0,0 km/h (0 Bft)
28.07.2013 05:00 19,6 C 18,4 C 95 % 1007,4 hPa 0,0 l/m 0,00 h 0,00 h 0,0 UV-I 0 W/m 0,0 km/h (0 Bft)
28.07.2013 06:00 21,0 C 19,8 C 89 % 1008,1 hPa 0,0 l/m 0,00 h 0,00 h 0,0 UV-I 15 W/m 5,8 km/h (2 Bft)
28.07.2013 07:00 21,0 C 19,6 C 89 % 1008,5 hPa 0,0 l/m 0,00 h 0,00 h 0,0 UV-I 45 W/m 6,3 km/h (2 Bft)
28.07.2013 08:00 20,9 C 20,1 C 85 % 1009,5 hPa 0,0 l/m 0,00 h 0,00 h 0,0 UV-I 118 W/m 13,3 km/h (3 Bft)
28.07.2013 09:00 21,3 C 21,1 C 80 % 1010,2 hPa 0,0 l/m 0,33 h 0,00 h 0,8 UV-I 277 W/m 8,9 km/h (2 Bft)
28.07.2013 10:00 21,3 C 21,0 C 79 % 1010,8 hPa 0,0 l/m 0,00 h 0,00 h 0,6 UV-I 150 W/m 5,7 km/h (1 Bft)
28.07.2013 11:00 21,4 C 21,3 C 78 % 1011,6 hPa 0,0 l/m 0,00 h 0,00 h 1,2 UV-I 228 W/m 8,2 km/h (2 Bft)
28.07.2013 12:00 22,1 C 22,8 C 77 % 1011,3 hPa 0,0 l/m 0,13 h 0,00 h 2,0 UV-I 338 W/m 5,6 km/h (1 Bft)
28.07.2013 13:00 23,5 C 24,8 C 70 % 1011,7 hPa 0,0 l/m 0,47 h 0,00 h 3,0 UV-I 552 W/m 10,0 km/h (2 Bft)
28.07.2013 14:00 24,4 C 25,7 C 64 % 1011,9 hPa 0,0 l/m 0,63 h 0,00 h 3,9 UV-I 600 W/m 9,3 km/h (2 Bft)
28.07.2013 15:00 23,7 C 24,3 C 66 % 1011,8 hPa 0,0 l/m 0,17 h 0,00 h 1,7 UV-I 315 W/m 6,8 km/h (2 Bft)
28.07.2013 16:00 22,8 C 22,6 C 68 % 1011,9 hPa 0,0 l/m 0,00 h 0,00 h 0,7 UV-I 184 W/m 2,5 km/h (1 Bft)
28.07.2013 17:00 23,0 C 23,1 C 69 % 1012,2 hPa 0,0 l/m 0,17 h 0,00 h 0,9 UV-I 269 W/m 1,3 km/h (1 Bft)
28.07.2013 18:00 23,0 C 22,8 C 70 % 1012,2 hPa 0,0 l/m 0,00 h 0,00 h 0,5 UV-I 174 W/m 0,3 km/h (0 Bft)
28.07.2013 19:00 22,5 C 22,0 C 72 % 1012,4 hPa 0,0 l/m 0,00 h 0,00 h 0,0 UV-I 107 W/m 0,0 km/h (0 Bft)
28.07.2013 20:00 21,9 C 20,3 C 74 % 1012,5 hPa 0,0 l/m 0,00 h 0,00 h 0,0 UV-I 28 W/m 0,0 km/h (0 Bft)
28.07.2013 21:00 20,3 C 18,2 C 82 % 1012,8 hPa 0,0 l/m 0,10 h 0,00 h 0,0 UV-I 11 W/m 0,0 km/h (0 Bft)
28.07.2013 22:00 18,8 C 16,9 C 88 % 1013,1 hPa 0,0 l/m 0,00 h 0,00 h 0,0 UV-I 0 W/m 0,0 km/h (0 Bft)
28.07.2013 23:00 17,8 C 16,0 C 91 % 1013,3 hPa 0,0 l/m 0,00 h 0,00 h 0,0 UV-I 0 W/m 0,0 km/h (0 Bft)
Min-Datum _ 25.07.13 22.07.13 22.07.13 28.07.13 - - - - - 22.07.13
_ Min-Zeit 05:02 04:18 13:34 00:30 - - - - - 00:00
Minimum _ 16,9 C 15,7 C 39 % 1003,6 hPa - - - - - 0,0 km/h (0 Bft)
Max-Datum _ 22.07.13 22.07.13 25.07.13 22.07.13 27.07.13 22.07.13 22.07.13 28.07.13 28.07.13 28.07.13
_ Max-Zeit 14:34 12:06 06:28 00:50 12:32 08:08 21:40 14:32 14:32 01:56
Maximum _ 35,3 C 38,4 C 99 % 1017,6 hPa 11,0 l/m 0,03 h 0,03 h 5,8 UV-I 995 W/m 38,6 km/h
SW (5 Bft)
Durchschnitt _ 23,6 C 22,8 C 78 % 1012,5 hPa #12,8 l/m #34:50 h #3:32 h 1,7 UV-I 254 W/m 3,7 km/h (1 Bft)
© 2013 W. Hausmann